createdAt,value
2023-01-17T00:01:09.730Z,18.35
2023-01-17T00:06:49.789Z,18.29
2023-01-17T00:12:11.565Z,18.23
2023-01-17T00:17:33.327Z,18.21
2023-01-17T00:23:13.616Z,18.19
2023-01-17T00:28:37.980Z,18.16
2023-01-17T00:33:59.680Z,18.12
2023-01-17T00:39:21.369Z,18.09
2023-01-17T00:45:01.749Z,18.06
2023-01-17T00:50:42.264Z,18.03
2023-01-17T00:56:22.716Z,18.00
2023-01-17T01:02:03.176Z,17.98
2023-01-17T01:07:43.788Z,17.94
2023-01-17T01:13:23.873Z,17.91
2023-01-17T01:19:04.461Z,17.87
2023-01-17T01:24:45.171Z,17.83
2023-01-17T01:30:26.117Z,17.82
2023-01-17T01:35:54.050Z,17.79
2023-01-17T01:41:16.349Z,17.77
2023-01-17T01:46:41.926Z,17.76
2023-01-17T01:52:06.995Z,17.75
2023-01-17T01:57:34.682Z,17.74
2023-01-17T02:03:00.511Z,17.73
2023-01-17T02:08:24.224Z,17.71
2023-01-17T02:13:46.052Z,17.69
2023-01-17T02:19:35.073Z,17.68
2023-01-17T02:25:22.893Z,17.66
2023-01-17T02:30:54.659Z,17.64
2023-01-17T02:36:22.665Z,17.61
2023-01-17T02:41:49.804Z,17.59
2023-01-17T02:47:26.346Z,17.59
2023-01-17T02:53:09.364Z,17.57
2023-01-17T02:58:49.651Z,17.55
2023-01-17T03:04:41.396Z,17.53
2023-01-17T03:10:05.710Z,17.51
2023-01-17T03:15:27.715Z,17.52
2023-01-17T03:20:49.543Z,17.50
2023-01-17T03:26:11.337Z,17.49
2023-01-17T03:31:33.119Z,17.48
2023-01-17T03:36:54.773Z,17.47
2023-01-17T03:42:16.645Z,17.45
2023-01-17T03:47:38.389Z,17.44
2023-01-17T03:53:00.208Z,17.42
2023-01-17T03:58:21.965Z,17.42
2023-01-17T04:03:43.683Z,17.41
2023-01-17T04:09:05.426Z,17.39
2023-01-17T04:14:27.123Z,17.37
2023-01-17T04:19:49.039Z,17.36
2023-01-17T04:25:10.781Z,17.35
2023-01-17T04:30:33.406Z,17.33
2023-01-17T04:35:55.677Z,17.33
2023-01-17T04:41:17.351Z,17.32
2023-01-17T04:46:39.049Z,17.30
2023-01-17T04:52:00.767Z,17.28
2023-01-17T04:57:22.552Z,17.27
2023-01-17T05:02:44.432Z,17.24
2023-01-17T05:08:06.160Z,17.23
2023-01-17T05:13:27.825Z,17.22
2023-01-17T05:18:53.632Z,17.23
2023-01-17T05:24:15.459Z,17.20
2023-01-17T05:29:37.243Z,17.18
2023-01-17T05:34:58.926Z,17.18
2023-01-17T05:40:23.422Z,17.17
2023-01-17T05:45:48.657Z,17.17
2023-01-17T05:51:10.354Z,17.15
2023-01-17T05:56:32.231Z,17.14
2023-01-17T06:01:54.485Z,17.12
2023-01-17T06:07:16.436Z,17.11
2023-01-17T06:12:38.283Z,17.11
2023-01-17T06:18:11.425Z,17.11
2023-01-17T06:23:33.163Z,17.10
2023-01-17T06:28:54.863Z,17.08
2023-01-17T06:34:16.816Z,17.07
2023-01-17T06:39:38.488Z,17.07
2023-01-17T06:45:00.220Z,17.05
2023-01-17T06:50:22.098Z,17.05
2023-01-17T06:55:43.905Z,17.04
2023-01-17T07:01:08.050Z,17.04
2023-01-17T07:06:29.936Z,17.02
2023-01-17T07:11:52.838Z,17.01
2023-01-17T07:17:14.562Z,17.01
2023-01-17T07:22:37.878Z,16.99
2023-01-17T07:28:00.309Z,16.99
2023-01-17T07:33:22.183Z,16.97
2023-01-17T07:38:46.850Z,16.96
2023-01-17T07:44:13.531Z,16.94
2023-01-17T07:49:35.330Z,16.92
2023-01-17T07:54:57.099Z,16.92
2023-01-17T08:00:19.629Z,16.91
2023-01-17T08:05:43.154Z,16.94
2023-01-17T08:11:04.973Z,16.92
2023-01-17T08:16:28.751Z,16.92
2023-01-17T08:21:50.581Z,16.91
2023-01-17T08:27:12.295Z,16.90
2023-01-17T08:32:34.709Z,16.90
2023-01-17T08:37:56.595Z,16.90
2023-01-17T08:43:19.295Z,16.88
2023-01-17T08:48:41.040Z,16.97
2023-01-17T08:54:02.748Z,17.14
2023-01-17T08:59:24.501Z,17.35
2023-01-17T09:04:50.056Z,17.57
2023-01-17T09:10:12.549Z,17.70
2023-01-17T09:15:34.277Z,17.78
2023-01-17T09:20:59.245Z,17.79
2023-01-17T09:26:30.632Z,17.77
2023-01-17T09:31:52.378Z,17.73
2023-01-17T09:37:14.107Z,17.68
2023-01-17T09:42:41.105Z,17.63
2023-01-17T09:48:09.095Z,17.57
2023-01-17T09:53:37.584Z,17.51
2023-01-17T09:59:32.757Z,17.46
2023-01-17T10:05:18.307Z,17.41
2023-01-17T10:10:42.325Z,17.36
2023-01-17T10:16:09.882Z,17.32
2023-01-17T10:21:49.696Z,17.30
2023-01-17T10:27:38.396Z,17.26
2023-01-17T10:33:04.472Z,17.21
2023-01-17T10:38:33.835Z,17.19
2023-01-17T10:43:55.869Z,17.16
2023-01-17T10:49:23.827Z,17.12
2023-01-17T10:54:45.508Z,17.08
2023-01-17T11:00:51.811Z,17.05
2023-01-17T11:06:19.667Z,17.03
2023-01-17T11:11:49.312Z,17.00
2023-01-17T11:17:12.643Z,17.06
2023-01-17T11:22:35.719Z,17.22
2023-01-17T11:28:01.968Z,17.43
2023-01-17T11:33:33.428Z,17.64
2023-01-17T11:39:27.598Z,17.74
2023-01-17T11:44:50.608Z,17.77
2023-01-17T11:50:26.483Z,17.78
2023-01-17T11:56:28.440Z,17.73
2023-01-17T12:02:02.578Z,17.68
2023-01-17T12:07:59.781Z,17.62
2023-01-17T12:14:03.402Z,17.56
2023-01-17T12:19:39.068Z,17.48
2023-01-17T12:25:38.066Z,17.42
2023-01-17T12:31:14.785Z,17.38
2023-01-17T12:36:49.665Z,17.34
2023-01-17T12:42:24.223Z,17.30
2023-01-17T12:47:54.616Z,17.24
2023-01-17T12:53:23.194Z,17.23
2023-01-17T12:58:50.585Z,17.20
2023-01-17T13:04:58.385Z,17.17
2023-01-17T13:10:23.302Z,17.12
2023-01-17T13:15:45.037Z,17.08
2023-01-17T13:21:09.430Z,17.05
2023-01-17T13:26:52.676Z,17.04
2023-01-17T13:32:49.678Z,16.99
2023-01-17T13:38:44.632Z,16.97
2023-01-17T13:44:22.069Z,16.96
2023-01-17T13:49:50.772Z,17.11
2023-01-17T13:55:45.708Z,17.32
2023-01-17T14:01:11.444Z,17.51
2023-01-17T14:06:36.302Z,17.65
2023-01-17T14:12:26.272Z,17.73
2023-01-17T14:17:56.042Z,17.74
2023-01-17T14:23:29.661Z,17.72
2023-01-17T14:28:52.091Z,17.67
2023-01-17T14:34:14.276Z,17.62
2023-01-17T14:39:47.640Z,17.57
2023-01-17T14:45:13.657Z,17.50
2023-01-17T14:50:37.939Z,17.46
2023-01-17T14:56:14.137Z,17.40
2023-01-17T15:01:36.510Z,17.33
2023-01-17T15:07:00.076Z,17.30
2023-01-17T15:12:21.850Z,17.24
2023-01-17T15:17:43.502Z,17.21
2023-01-17T15:23:05.888Z,17.18
2023-01-17T15:28:29.206Z,17.14
2023-01-17T15:33:55.818Z,17.11
2023-01-17T15:39:33.540Z,17.08
2023-01-17T15:44:59.930Z,17.04
2023-01-17T15:50:23.823Z,17.00
2023-01-17T15:55:48.097Z,16.96
2023-01-17T16:01:17.509Z,16.95
2023-01-17T16:06:48.297Z,16.91
2023-01-17T16:12:10.347Z,16.99
2023-01-17T16:17:32.800Z,17.13
2023-01-17T16:22:54.514Z,17.32
2023-01-17T16:28:16.443Z,17.48
2023-01-17T16:33:39.524Z,17.58
2023-01-17T16:39:01.312Z,17.61
2023-01-17T16:44:23.046Z,17.59
2023-01-17T16:49:44.744Z,17.57
2023-01-17T16:55:10.283Z,17.53
2023-01-17T17:00:32.067Z,17.49
2023-01-17T17:05:59.816Z,17.47
2023-01-17T17:11:25.579Z,17.42
2023-01-17T17:16:47.709Z,17.35
2023-01-17T17:22:09.455Z,17.33
2023-01-17T17:27:31.360Z,17.27
2023-01-17T17:32:53.012Z,17.22
2023-01-17T17:38:14.700Z,17.28
2023-01-17T17:43:38.152Z,17.66
2023-01-17T17:49:00.289Z,18.22
2023-01-17T17:54:22.397Z,18.76
2023-01-17T17:59:44.098Z,19.17
2023-01-17T18:05:06.408Z,19.35
2023-01-17T18:10:28.532Z,19.43
2023-01-17T18:15:50.317Z,19.49
2023-01-17T18:21:15.081Z,19.69
2023-01-17T18:26:39.547Z,19.83
2023-01-17T18:32:01.244Z,19.91
2023-01-17T18:37:23.317Z,19.89
2023-01-17T18:42:44.975Z,19.83
2023-01-17T18:48:06.680Z,19.68
2023-01-17T18:53:33.844Z,19.53
2023-01-17T18:58:55.787Z,19.45
2023-01-17T19:04:18.995Z,19.48
2023-01-17T19:09:40.706Z,19.53
2023-01-17T19:15:02.503Z,19.60
2023-01-17T19:20:24.578Z,19.66
2023-01-17T19:25:46.728Z,19.69
2023-01-17T19:31:10.331Z,19.68
2023-01-17T19:36:34.716Z,19.77
2023-01-17T19:41:56.420Z,20.07
2023-01-17T19:47:18.243Z,20.46
2023-01-17T19:52:40.103Z,20.72
2023-01-17T19:58:01.824Z,20.84
2023-01-17T20:03:23.547Z,20.96
2023-01-17T20:08:45.481Z,21.09
2023-01-17T20:14:07.195Z,21.26
2023-01-17T20:19:29.070Z,21.28
2023-01-17T20:24:50.815Z,21.17
2023-01-17T20:30:20.132Z,20.99
2023-01-17T20:35:42.326Z,20.74
2023-01-17T20:41:03.978Z,20.55
2023-01-17T20:46:27.829Z,20.37
2023-01-17T20:51:50.090Z,20.18
2023-01-17T20:57:11.862Z,20.03
2023-01-17T21:02:33.689Z,19.90
2023-01-17T21:07:55.733Z,19.77
2023-01-17T21:13:17.645Z,19.64
2023-01-17T21:18:39.322Z,19.53
2023-01-17T21:24:01.148Z,19.43
2023-01-17T21:29:28.777Z,19.34
2023-01-17T21:34:52.411Z,19.28
2023-01-17T21:40:14.753Z,19.17
2023-01-17T21:45:37.858Z,19.11
2023-01-17T21:51:07.734Z,19.05
2023-01-17T21:56:48.352Z,18.99
2023-01-17T22:02:10.825Z,18.93
2023-01-17T22:07:32.633Z,18.83
2023-01-17T22:12:54.324Z,18.73
2023-01-17T22:18:16.221Z,18.65
2023-01-17T22:23:39.144Z,18.56
2023-01-17T22:29:02.428Z,18.49
2023-01-17T22:34:24.277Z,18.41
2023-01-17T22:39:46.061Z,18.34
2023-01-17T22:45:08.249Z,18.27
2023-01-17T22:50:29.946Z,18.21
2023-01-17T22:56:06.063Z,18.17
2023-01-17T23:01:32.980Z,18.10
2023-01-17T23:06:54.729Z,18.05
2023-01-17T23:12:16.407Z,17.99
2023-01-17T23:17:56.485Z,17.96
2023-01-17T23:23:18.148Z,17.90
2023-01-17T23:28:39.855Z,17.86
2023-01-17T23:34:01.560Z,17.83
2023-01-17T23:39:23.247Z,17.79
2023-01-17T23:44:45.019Z,17.76
2023-01-17T23:50:07.201Z,17.72
2023-01-17T23:55:28.880Z,17.68
